Nearby METAR Reports

 

EDNY - Friedrichshafen, Germany
Distance from station: ONO 32km
aktuell: 18.12.2018 12:50
Few Clouds
Few Clouds
 Wind von OSO
Wind: OSO 6 km/h
Temperatur: 4°C
Taupunkt: 1°C
Luftfeuchte: 81%
Luftdruck: 1024 hPa
Clouds: Few Clouds
Visibility: 10 km
Cloud details: Few Clouds 366 m
2018/12/18 11:50 EDNY 181150Z 11003KT 080V160 9999 FEW012 04/01 Q1024
LSZR - Rheineck/Altenrh, Switzerland
Distance from station: OSO 37km
aktuell: 18.12.2018 12:50
Mist, Few clouds
Mist, Few clouds
 Wind von varies
Wind: varies 2 km/h
Temperatur: 2°C
Taupunkt: 0°C
Luftfeuchte: 87%
Luftdruck: 1024 hPa
Zusammenfassung: Mist
Clouds: Few Clouds
Visibility: 10 km
Cloud details: Few Clouds 183 m
2018/12/18 11:50 LSZR 181150Z VRB01KT 9999 4500W BR FEW006 02/00 Q1024 NOSIG RMK J
LSMD - Dubendorf, Switzerland
Distance from station: SW 40km
aktuell: 18.12.2018 12:50
Mist, geschlossene Wolkendecke
Mist, geschlossene Wolkendecke
 Wind von NW
Wind: NW 9 km/h
Temperatur: -1°C
gefühlte Temperatur: -4°C
Taupunkt: -1°C
Luftfeuchte: 100%
Luftdruck: 1024 hPa
Zusammenfassung: Mist
Clouds: geschlossene Wolkendecke
Visibility: 0.8 mile
Cloud details: geschlossene Wolkendecke 61 m
2018/12/18 11:50 LSMD 181150Z AUTO 31005KT 280V340 0500NDV R11/1100V2000U R29/0500V0800U BR OVC002 M01/M01 Q1024 RMK
 
LSZH - Zurich-Kloten (a, Switzerland
Distance from station: WSW 44km
aktuell: 18.12.2018 12:50
Mist, stark bewölkt
Mist, stark bewölkt
 Wind von varies
Wind: varies 4 km/h
Temperatur: -1°C
Taupunkt: -1°C
Luftfeuchte: 100%
Luftdruck: 1024 hPa
Zusammenfassung: Mist
Clouds: stark bewölkt
Visibility: 3 km
Cloud details: Few Clouds 61 m
stark bewölkt 122 m
2018/12/18 11:50 LSZH 181150Z VRB02KT 2800 BR FEW002 BKN004 M01/M01 Q1024 BECMG 3500 BKN005
LOIH - Hohenems-Dornbir, Austria
Distance from station: OSO 51km
aktuell: 31.10.2016 17:00
NOT Current
geschlossene Wolkendecke
geschlossene Wolkendecke
 Wind von calm
Wind: Windstill
Temperatur: 10°C
Taupunkt: 9°C
Luftfeuchte: 94%
Luftdruck: 1026 hPa
Clouds: geschlossene Wolkendecke
Cloud details: geschlossene Wolkendecke 305 m
2016/10/31 16:00 LOIH 311600Z 00000KT 10KM OVC010ST 10/09 Q1026 RMK OVC
LSME - Emmen, Switzerland
Distance from station: SW 82km
aktuell: 18.12.2018 12:50
geschlossene Wolkendecke
geschlossene Wolkendecke
 Wind von varies
Wind: varies 4 km/h
Temperatur: 0°C
Taupunkt: 0°C
Luftfeuchte: 100%
Luftdruck: 1024 hPa
Clouds: geschlossene Wolkendecke
Visibility: 10 miles
Cloud details: Few Clouds 91 m
teilweise bewölkt 152 m
geschlossene Wolkendecke 213 m
2018/12/18 11:50 LSME 181150Z AUTO VRB02KT 6000NDV FEW003 SCT005 OVC007 00/M00 Q1024 RMK
 
LSZC - Buochs, Switzerland
Distance from station: SW 89km
aktuell: 18.12.2018 12:50
klar
klar
 Wind von S
Wind: S 7 km/h
Temperatur: 3°C
gefühlte Temperatur: 1°C
Taupunkt: 1°C
Luftfeuchte: 87%
Luftdruck: 1023 hPa
Clouds: klar
Visibility: 8 km
2018/12/18 11:50 LSZC 181150Z AUTO 19004KT 120V210 8000 NCD 03/01 Q1023
ETHL - Laupheim (ger-Ar, Germany
Distance from station: NO 92km
aktuell: 18.12.2018 12:20
Freezing fog, geschlossene Wolkendecke
Freezing fog, geschlossene Wolkendecke
 Wind von ONO
Wind: ONO 6 km/h
Temperatur: -1°C
Taupunkt: -2°C
Luftfeuchte: 93%
Luftdruck: 1025 hPa
Zusammenfassung: Freezing Fog
Clouds: geschlossene Wolkendecke
Visibility: 0 km
Cloud details: geschlossene Wolkendecke 0 m
2018/12/18 11:20 ETHL 181120Z 06003KT 0150 R27/0250N FZFG VV000 M01/M02 Q1025 RED RED
EDJA - Memmingen Allgau, Germany
Distance from station: ONO 95km
aktuell: 18.12.2018 12:50
klar
klar
 Wind von OSO
Wind: OSO 9 km/h
Temperatur: 5°C
gefühlte Temperatur: 3°C
Taupunkt: -1°C
Luftfeuchte: 66%
Luftdruck: 1023 hPa
Zusammenfassung: klar
Visibility: greater than 10 km
2018/12/18 11:50 EDJA 181150Z 11005KT CAVOK 05/M01 Q1023
 
LSMA - Alpnach, Switzerland
Distance from station: SW 95km
aktuell: 18.12.2018 12:50
klar
klar
 Wind von calm
Wind: Windstill
Temperatur: 2°C
Taupunkt: 1°C
Luftfeuchte: 93%
Luftdruck: 1023 hPa
Clouds: klar
Visibility: 16 miles
2018/12/18 11:50 LSMA 181150Z AUTO 00000KT 9999NDV NCD 02/01 Q1023 RMK